TAR703 LSGG-DTTA
Flight info
| Callsign | TAR703 |
|---|---|
| Flight time | 1h 37m |
| Altitude | 35000 |
| Route | MEDAM1N/04 MEDAM DCT VEVAR/N0458F330 DCT BARSO DCT KOLON/N0453F350 DCT OMARD/N0452F370 DCT VAREK DCT LOKDU DCT PELOS DCT IPROM DCT MALAV DCT CAR DCT NOLSI UA868 TUC |
| Aircraft | A320/M-SDE3FGHIRWY/LB1 |
Departure
| Time | 2026-05-07 17:23 |
|---|---|
| Airport | Geneva International Airport (LSGG) |
Arrival
| Time | 2026-05-07 19:01 |
|---|---|
| Airport | Tunis Carthage International Airport (DTTA) |
| Time | Latitude | Longitude | Altitude | Speed | Heading |
|---|---|---|---|---|---|
| 2026-05-07 17:13 | 46.23032 | 6.10570 | 1393 ft | 0 kts | 135° |
| 2026-05-07 17:17 | 46.23034 | 6.10567 | 1393 ft | 3 kts | 136° |
| 2026-05-07 17:18 | 46.23055 | 6.10545 | 1402 ft | 4 kts | 160° |
| 2026-05-07 17:18 | 46.23079 | 6.10541 | 1402 ft | 4 kts | 202° |
| 2026-05-07 17:18 | 46.23094 | 6.10553 | 1398 ft | 0 kts | 225° |
| 2026-05-07 17:20 | 46.23074 | 6.10524 | 1400 ft | 11 kts | 225° |
| 2026-05-07 17:20 | 46.23010 | 6.10431 | 1395 ft | 13 kts | 225° |
| 2026-05-07 17:20 | 46.22987 | 6.10398 | 1393 ft | 0 kts | 225° |
| 2026-05-07 17:21 | 46.22969 | 6.10372 | 1393 ft | 10 kts | 226° |
| 2026-05-07 17:21 | 46.22964 | 6.10290 | 1393 ft | 8 kts | 310° |
| 2026-05-07 17:21 | 46.23002 | 6.10235 | 1396 ft | 7 kts | 315° |
| 2026-05-07 17:22 | 46.23037 | 6.10185 | 1393 ft | 8 kts | 315° |
| 2026-05-07 17:22 | 46.23066 | 6.10143 | 1402 ft | 4 kts | 315° |
| 2026-05-07 17:22 | 46.23086 | 6.10115 | 1399 ft | 11 kts | 316° |
| 2026-05-07 17:22 | 46.23182 | 6.10106 | 1401 ft | 15 kts | 15° |
| 2026-05-07 17:23 | 46.23331 | 6.10208 | 1403 ft | 48 kts | 38° |
| 2026-05-07 17:23 | 46.23738 | 6.10799 | 1382 ft | 114 kts | 45° |
| 2026-05-07 17:23 | 46.24410 | 6.11791 | 1404 ft | 158 kts | 46° |
| 2026-05-07 17:23 | 46.25141 | 6.12909 | 2043 ft | 154 kts | 48° |
| 2026-05-07 17:24 | 46.25876 | 6.14069 | 2580 ft | 158 kts | 48° |
| 2026-05-07 17:24 | 46.26637 | 6.15233 | 3147 ft | 162 kts | 45° |
| 2026-05-07 17:24 | 46.27482 | 6.16446 | 3399 ft | 182 kts | 44° |
| 2026-05-07 17:24 | 46.28445 | 6.17820 | 3609 ft | 207 kts | 44° |
| 2026-05-07 17:25 | 46.29530 | 6.19377 | 3919 ft | 232 kts | 44° |
| 2026-05-07 17:25 | 46.30724 | 6.21106 | 4341 ft | 253 kts | 45° |
| 2026-05-07 17:25 | 46.31991 | 6.22954 | 5051 ft | 263 kts | 44° |
| 2026-05-07 17:25 | 46.33291 | 6.24857 | 5857 ft | 268 kts | 45° |
| 2026-05-07 17:26 | 46.34619 | 6.26803 | 6641 ft | 274 kts | 45° |
| 2026-05-07 17:26 | 46.35819 | 6.28966 | 7355 ft | 281 kts | 66° |
| 2026-05-07 17:26 | 46.36140 | 6.31733 | 8053 ft | 283 kts | 101° |
| 2026-05-07 17:26 | 46.35406 | 6.34341 | 8805 ft | 282 kts | 127° |
| 2026-05-07 17:27 | 46.34058 | 6.36339 | 9608 ft | 282 kts | 148° |
| 2026-05-07 17:27 | 46.32273 | 6.37440 | 10361 ft | 281 kts | 172° |
| 2026-05-07 17:27 | 46.30302 | 6.37458 | 10856 ft | 292 kts | 188° |
| 2026-05-07 17:27 | 46.28212 | 6.37069 | 11061 ft | 315 kts | 189° |
| 2026-05-07 17:28 | 46.25967 | 6.36591 | 11224 ft | 338 kts | 190° |
| 2026-05-07 17:28 | 46.23582 | 6.36065 | 11577 ft | 352 kts | 190° |
| 2026-05-07 17:28 | 46.21136 | 6.35532 | 12176 ft | 358 kts | 190° |
| 2026-05-07 17:28 | 46.18641 | 6.35166 | 12811 ft | 364 kts | 180° |
| 2026-05-07 17:29 | 46.16124 | 6.35798 | 13482 ft | 372 kts | 166° |
| 2026-05-07 17:29 | 46.13623 | 6.36839 | 14085 ft | 376 kts | 166° |
| 2026-05-07 17:29 | 46.11105 | 6.37913 | 14660 ft | 379 kts | 166° |
| 2026-05-07 17:29 | 46.08560 | 6.39010 | 15239 ft | 383 kts | 166° |
| 2026-05-07 17:30 | 46.05990 | 6.40117 | 15812 ft | 387 kts | 166° |
| 2026-05-07 17:30 | 46.03398 | 6.41224 | 16385 ft | 391 kts | 166° |
| 2026-05-07 17:30 | 46.00778 | 6.42337 | 16970 ft | 395 kts | 166° |
| 2026-05-07 17:30 | 45.98119 | 6.43464 | 17537 ft | 399 kts | 166° |
| 2026-05-07 17:31 | 45.95478 | 6.44583 | 18076 ft | 403 kts | 166° |
| 2026-05-07 17:31 | 45.92775 | 6.45727 | 18591 ft | 407 kts | 166° |
| 2026-05-07 17:31 | 45.90047 | 6.46882 | 19080 ft | 410 kts | 166° |
| 2026-05-07 17:31 | 45.87301 | 6.48043 | 19571 ft | 413 kts | 166° |
| 2026-05-07 17:32 | 45.84534 | 6.49212 | 20047 ft | 416 kts | 166° |
| 2026-05-07 17:32 | 45.81749 | 6.50385 | 20526 ft | 418 kts | 167° |
| 2026-05-07 17:32 | 45.78942 | 6.51561 | 20985 ft | 422 kts | 167° |
| 2026-05-07 17:32 | 45.76122 | 6.52739 | 21430 ft | 424 kts | 166° |
| 2026-05-07 17:33 | 45.73276 | 6.53928 | 21866 ft | 427 kts | 166° |
| 2026-05-07 17:33 | 45.70415 | 6.55125 | 22311 ft | 430 kts | 167° |
| 2026-05-07 17:33 | 45.67540 | 6.56331 | 22768 ft | 432 kts | 166° |
| 2026-05-07 17:33 | 45.64646 | 6.57543 | 23149 ft | 435 kts | 166° |
| 2026-05-07 17:34 | 45.61734 | 6.58762 | 23533 ft | 437 kts | 167° |
| 2026-05-07 17:34 | 45.58803 | 6.59990 | 23870 ft | 439 kts | 167° |
| 2026-05-07 17:34 | 45.55859 | 6.61224 | 24232 ft | 440 kts | 166° |
| 2026-05-07 17:34 | 45.52914 | 6.62453 | 24571 ft | 442 kts | 167° |
| 2026-05-07 17:35 | 45.49953 | 6.63686 | 24920 ft | 443 kts | 167° |
| 2026-05-07 17:35 | 45.46988 | 6.64918 | 25223 ft | 445 kts | 167° |
| 2026-05-07 17:35 | 45.44010 | 6.66155 | 25536 ft | 447 kts | 167° |
| 2026-05-07 17:35 | 45.41017 | 6.67398 | 25850 ft | 449 kts | 167° |
| 2026-05-07 17:36 | 45.38059 | 6.68628 | 26160 ft | 450 kts | 167° |
| 2026-05-07 17:36 | 45.35042 | 6.69880 | 26425 ft | 452 kts | 167° |
| 2026-05-07 17:36 | 45.32021 | 6.71128 | 26709 ft | 453 kts | 167° |
| 2026-05-07 17:36 | 45.28986 | 6.72376 | 26998 ft | 455 kts | 168° |
| 2026-05-07 17:37 | 45.25938 | 6.73625 | 27271 ft | 456 kts | 168° |
| 2026-05-07 17:37 | 45.22884 | 6.74877 | 27514 ft | 458 kts | 168° |
| 2026-05-07 17:37 | 45.19816 | 6.76135 | 27762 ft | 459 kts | 168° |
| 2026-05-07 17:37 | 45.17127 | 6.77239 | 27961 ft | 460 kts | 168° |
| 2026-05-07 17:38 | 45.14053 | 6.78505 | 28319 ft | 459 kts | 168° |
| 2026-05-07 17:38 | 45.10986 | 6.79767 | 28681 ft | 457 kts | 168° |
| 2026-05-07 17:38 | 45.07929 | 6.81026 | 29023 ft | 456 kts | 168° |
| 2026-05-07 17:38 | 45.04889 | 6.82279 | 29383 ft | 455 kts | 168° |
| 2026-05-07 17:39 | 45.01844 | 6.83530 | 29712 ft | 455 kts | 168° |
| 2026-05-07 17:39 | 44.98846 | 6.84756 | 30065 ft | 454 kts | 168° |
| 2026-05-07 17:39 | 44.95778 | 6.86007 | 30382 ft | 452 kts | 169° |
| 2026-05-07 17:39 | 44.92800 | 6.87219 | 30694 ft | 450 kts | 169° |
| 2026-05-07 17:40 | 44.89793 | 6.88442 | 30925 ft | 451 kts | 169° |
| 2026-05-07 17:40 | 44.86777 | 6.89663 | 31173 ft | 450 kts | 169° |
| 2026-05-07 17:40 | 44.83776 | 6.90875 | 31476 ft | 449 kts | 169° |
| 2026-05-07 17:40 | 44.80774 | 6.92091 | 31735 ft | 448 kts | 169° |
| 2026-05-07 17:41 | 44.77777 | 6.93304 | 31957 ft | 447 kts | 170° |
| 2026-05-07 17:41 | 44.74791 | 6.94515 | 32207 ft | 446 kts | 170° |
| 2026-05-07 17:41 | 44.71813 | 6.95725 | 32526 ft | 445 kts | 170° |
| 2026-05-07 17:41 | 44.68836 | 6.96928 | 32820 ft | 444 kts | 171° |
| 2026-05-07 17:42 | 44.65870 | 6.98125 | 33105 ft | 443 kts | 171° |
| 2026-05-07 17:42 | 44.62905 | 6.99319 | 33344 ft | 443 kts | 170° |
| 2026-05-07 17:42 | 44.59940 | 7.00513 | 33614 ft | 442 kts | 171° |
| 2026-05-07 17:42 | 44.56984 | 7.01702 | 33922 ft | 441 kts | 171° |
| 2026-05-07 17:43 | 44.54072 | 7.02875 | 34164 ft | 440 kts | 171° |
| 2026-05-07 17:43 | 44.51087 | 7.04074 | 34397 ft | 440 kts | 171° |
| 2026-05-07 17:43 | 44.48185 | 7.05239 | 34608 ft | 439 kts | 171° |
| 2026-05-07 17:43 | 44.45246 | 7.06415 | 34816 ft | 439 kts | 171° |
| 2026-05-07 17:44 | 44.42310 | 7.07587 | 34956 ft | 439 kts | 171° |
| 2026-05-07 17:44 | 44.39355 | 7.08762 | 34975 ft | 442 kts | 171° |
| 2026-05-07 17:44 | 44.33425 | 7.11111 | 34992 ft | 443 kts | 171° |
| 2026-05-07 17:45 | 44.27489 | 7.13463 | 34993 ft | 444 kts | 171° |
| 2026-05-07 17:45 | 44.21545 | 7.15837 | 34993 ft | 444 kts | 171° |
| 2026-05-07 17:46 | 44.15614 | 7.18198 | 34994 ft | 443 kts | 172° |
| 2026-05-07 17:46 | 44.10690 | 7.20146 | 35000 ft | 443 kts | 172° |
| 2026-05-07 17:47 | 44.03761 | 7.22879 | 35007 ft | 442 kts | 172° |
| 2026-05-07 17:47 | 43.97880 | 7.25204 | 34984 ft | 442 kts | 172° |
| 2026-05-07 17:48 | 43.91958 | 7.27550 | 34995 ft | 442 kts | 172° |
| 2026-05-07 17:48 | 43.86045 | 7.29876 | 34993 ft | 441 kts | 172° |
| 2026-05-07 17:49 | 43.80129 | 7.32190 | 34993 ft | 442 kts | 173° |
| 2026-05-07 17:49 | 43.74213 | 7.34498 | 34985 ft | 441 kts | 173° |
| 2026-05-07 17:50 | 43.68308 | 7.36805 | 34983 ft | 441 kts | 173° |
| 2026-05-07 17:50 | 43.62406 | 7.39103 | 34986 ft | 441 kts | 173° |
| 2026-05-07 17:51 | 43.56544 | 7.41367 | 34982 ft | 440 kts | 172° |
| 2026-05-07 17:51 | 43.50658 | 7.43648 | 34999 ft | 439 kts | 172° |
| 2026-05-07 17:52 | 43.44774 | 7.45927 | 34999 ft | 439 kts | 172° |
| 2026-05-07 17:52 | 43.38897 | 7.48199 | 34992 ft | 438 kts | 172° |
| 2026-05-07 17:53 | 43.33031 | 7.50464 | 34981 ft | 437 kts | 172° |
| 2026-05-07 17:53 | 43.27186 | 7.52711 | 34992 ft | 436 kts | 172° |
| 2026-05-07 17:54 | 43.21344 | 7.54938 | 34994 ft | 435 kts | 172° |
| 2026-05-07 17:54 | 43.16492 | 7.56786 | 34983 ft | 434 kts | 172° |
| 2026-05-07 17:55 | 43.10680 | 7.59015 | 34989 ft | 433 kts | 172° |
| 2026-05-07 17:55 | 43.04928 | 7.61613 | 34989 ft | 437 kts | 168° |
| 2026-05-07 17:56 | 42.99242 | 7.64574 | 34994 ft | 438 kts | 167° |
| 2026-05-07 17:56 | 42.93557 | 7.67526 | 34987 ft | 436 kts | 168° |
| 2026-05-07 17:57 | 42.87875 | 7.70367 | 34990 ft | 434 kts | 169° |
| 2026-05-07 17:57 | 42.82187 | 7.73148 | 34990 ft | 434 kts | 169° |
| 2026-05-07 17:58 | 42.76508 | 7.75936 | 34995 ft | 434 kts | 168° |
| 2026-05-07 17:58 | 42.70876 | 7.78720 | 34984 ft | 433 kts | 168° |
| 2026-05-07 17:59 | 42.65219 | 7.81510 | 34989 ft | 432 kts | 168° |
| 2026-05-07 17:59 | 42.59556 | 7.84287 | 34994 ft | 432 kts | 168° |
| 2026-05-07 18:00 | 42.53906 | 7.87054 | 34994 ft | 431 kts | 168° |
| 2026-05-07 18:00 | 42.48254 | 7.89819 | 34996 ft | 431 kts | 168° |
| 2026-05-07 18:01 | 42.42608 | 7.92572 | 34989 ft | 431 kts | 168° |
| 2026-05-07 18:01 | 42.36962 | 7.95319 | 34983 ft | 431 kts | 168° |
| 2026-05-07 18:02 | 42.28430 | 7.98520 | 34955 ft | 416 kts | 181° |
| 2026-05-07 18:03 | 42.22674 | 7.99409 | 34958 ft | 416 kts | 181° |
| 2026-05-07 18:03 | 42.16909 | 8.00320 | 34966 ft | 417 kts | 181° |
| 2026-05-07 18:04 | 42.11147 | 8.01232 | 34962 ft | 417 kts | 181° |
| 2026-05-07 18:04 | 42.05417 | 8.02136 | 34980 ft | 417 kts | 181° |
| 2026-05-07 18:05 | 41.99659 | 8.03027 | 34990 ft | 416 kts | 181° |
| 2026-05-07 18:05 | 41.93904 | 8.03931 | 34993 ft | 416 kts | 181° |
| 2026-05-07 18:06 | 41.88156 | 8.04851 | 34976 ft | 416 kts | 180° |
| 2026-05-07 18:06 | 41.82415 | 8.05771 | 34983 ft | 415 kts | 180° |
| 2026-05-07 18:07 | 41.76673 | 8.06674 | 34982 ft | 415 kts | 180° |
| 2026-05-07 18:07 | 41.70941 | 8.07565 | 34983 ft | 415 kts | 180° |
| 2026-05-07 18:08 | 41.65196 | 8.08474 | 34972 ft | 415 kts | 180° |
| 2026-05-07 18:08 | 41.59455 | 8.09385 | 34975 ft | 416 kts | 180° |
| 2026-05-07 18:09 | 41.53711 | 8.10284 | 34973 ft | 416 kts | 180° |
| 2026-05-07 18:09 | 41.47963 | 8.11189 | 34956 ft | 416 kts | 180° |
| 2026-05-07 18:10 | 41.42207 | 8.12099 | 34953 ft | 417 kts | 180° |
| 2026-05-07 18:10 | 41.36481 | 8.12991 | 34952 ft | 417 kts | 180° |
| 2026-05-07 18:11 | 41.30703 | 8.13878 | 34949 ft | 418 kts | 180° |
| 2026-05-07 18:11 | 41.24923 | 8.14760 | 34940 ft | 419 kts | 180° |
| 2026-05-07 18:12 | 41.19118 | 8.15684 | 34938 ft | 422 kts | 176° |
| 2026-05-07 18:12 | 41.13485 | 8.18338 | 34934 ft | 441 kts | 157° |
| 2026-05-07 18:13 | 41.08164 | 8.22409 | 34939 ft | 436 kts | 164° |
| 2026-05-07 18:13 | 41.02577 | 8.25302 | 34925 ft | 434 kts | 166° |
| 2026-05-07 18:14 | 40.96940 | 8.28199 | 34934 ft | 435 kts | 166° |
| 2026-05-07 18:14 | 40.91291 | 8.31111 | 34938 ft | 436 kts | 166° |
| 2026-05-07 18:15 | 40.85643 | 8.34014 | 34937 ft | 436 kts | 165° |
| 2026-05-07 18:15 | 40.80142 | 8.37604 | 34913 ft | 442 kts | 160° |
| 2026-05-07 18:16 | 40.74684 | 8.41370 | 34921 ft | 443 kts | 159° |
| 2026-05-07 18:16 | 40.69213 | 8.45139 | 34923 ft | 444 kts | 160° |
| 2026-05-07 18:17 | 40.63727 | 8.48899 | 34927 ft | 445 kts | 160° |
| 2026-05-07 18:17 | 40.58237 | 8.52648 | 34905 ft | 445 kts | 160° |
| 2026-05-07 18:18 | 40.52725 | 8.56404 | 34911 ft | 446 kts | 160° |
| 2026-05-07 18:18 | 40.47212 | 8.60172 | 34924 ft | 447 kts | 160° |
| 2026-05-07 18:19 | 40.41688 | 8.63945 | 34916 ft | 447 kts | 160° |
| 2026-05-07 18:19 | 40.36196 | 8.67681 | 34931 ft | 448 kts | 160° |
| 2026-05-07 18:20 | 40.30657 | 8.71435 | 34942 ft | 448 kts | 160° |
| 2026-05-07 18:20 | 40.25118 | 8.75175 | 34927 ft | 449 kts | 160° |
| 2026-05-07 18:21 | 40.19556 | 8.78925 | 34929 ft | 449 kts | 160° |
| 2026-05-07 18:21 | 40.13995 | 8.82680 | 34936 ft | 449 kts | 160° |
| 2026-05-07 18:22 | 40.08436 | 8.86423 | 34922 ft | 449 kts | 161° |
| 2026-05-07 18:22 | 40.02873 | 8.90145 | 34928 ft | 449 kts | 161° |
| 2026-05-07 18:23 | 39.97308 | 8.93871 | 34935 ft | 449 kts | 161° |
| 2026-05-07 18:23 | 39.91779 | 8.97565 | 34944 ft | 449 kts | 161° |
| 2026-05-07 18:24 | 39.86218 | 9.01287 | 34938 ft | 449 kts | 161° |
| 2026-05-07 18:24 | 39.80650 | 9.05017 | 34950 ft | 449 kts | 161° |
| 2026-05-07 18:25 | 39.75096 | 9.08712 | 34949 ft | 448 kts | 161° |
| 2026-05-07 18:25 | 39.69543 | 9.12392 | 34943 ft | 448 kts | 161° |
| 2026-05-07 18:26 | 39.63999 | 9.16075 | 34930 ft | 447 kts | 161° |
| 2026-05-07 18:26 | 39.58461 | 9.19750 | 34944 ft | 446 kts | 161° |
| 2026-05-07 18:27 | 39.52930 | 9.23398 | 34951 ft | 446 kts | 161° |
| 2026-05-07 18:27 | 39.47441 | 9.27018 | 34949 ft | 446 kts | 161° |
| 2026-05-07 18:28 | 39.41915 | 9.30657 | 34942 ft | 445 kts | 161° |
| 2026-05-07 18:28 | 39.36393 | 9.34286 | 34935 ft | 444 kts | 161° |
| 2026-05-07 18:29 | 39.30875 | 9.37900 | 34958 ft | 444 kts | 161° |
| 2026-05-07 18:29 | 39.25365 | 9.41509 | 34955 ft | 444 kts | 161° |
| 2026-05-07 18:30 | 39.19857 | 9.45111 | 34956 ft | 444 kts | 161° |
| 2026-05-07 18:30 | 39.14347 | 9.48706 | 34925 ft | 444 kts | 162° |
| 2026-05-07 18:31 | 39.08842 | 9.52349 | 34928 ft | 446 kts | 160° |
| 2026-05-07 18:31 | 39.03473 | 9.56291 | 34932 ft | 449 kts | 158° |
| 2026-05-07 18:32 | 38.98091 | 9.60390 | 34934 ft | 449 kts | 158° |
| 2026-05-07 18:32 | 38.92698 | 9.64422 | 34923 ft | 449 kts | 159° |
| 2026-05-07 18:33 | 38.87274 | 9.68391 | 34926 ft | 449 kts | 159° |
| 2026-05-07 18:33 | 38.81844 | 9.72341 | 34933 ft | 449 kts | 159° |
| 2026-05-07 18:34 | 38.76410 | 9.76298 | 34934 ft | 449 kts | 159° |
| 2026-05-07 18:34 | 38.70975 | 9.80262 | 34928 ft | 449 kts | 159° |
| 2026-05-07 18:35 | 38.65543 | 9.84227 | 34905 ft | 449 kts | 160° |
| 2026-05-07 18:35 | 38.60117 | 9.88170 | 34928 ft | 448 kts | 161° |
| 2026-05-07 18:36 | 38.54723 | 9.92078 | 34940 ft | 448 kts | 161° |
| 2026-05-07 18:36 | 38.49298 | 9.96012 | 34940 ft | 448 kts | 160° |
| 2026-05-07 18:37 | 38.43879 | 9.99931 | 34937 ft | 447 kts | 161° |
| 2026-05-07 18:37 | 38.38480 | 10.03832 | 34952 ft | 445 kts | 161° |
| 2026-05-07 18:38 | 38.33094 | 10.07716 | 34955 ft | 444 kts | 161° |
| 2026-05-07 18:38 | 38.27720 | 10.11576 | 34953 ft | 443 kts | 161° |
| 2026-05-07 18:39 | 38.22350 | 10.15433 | 34952 ft | 443 kts | 161° |
| 2026-05-07 18:39 | 38.19665 | 10.17359 | 34714 ft | 442 kts | 161° |
| 2026-05-07 18:39 | 38.16989 | 10.19280 | 34478 ft | 442 kts | 161° |
| 2026-05-07 18:39 | 38.14313 | 10.21196 | 34211 ft | 442 kts | 162° |
| 2026-05-07 18:40 | 38.11636 | 10.23109 | 33972 ft | 442 kts | 162° |
| 2026-05-07 18:40 | 38.09853 | 10.24379 | 33808 ft | 442 kts | 162° |
| 2026-05-07 18:40 | 38.07152 | 10.26229 | 33531 ft | 437 kts | 166° |
| 2026-05-07 18:40 | 38.04344 | 10.27560 | 33266 ft | 424 kts | 175° |
| 2026-05-07 18:41 | 38.01498 | 10.28277 | 32975 ft | 413 kts | 182° |
| 2026-05-07 18:41 | 37.98654 | 10.28439 | 32039 ft | 406 kts | 190° |
| 2026-05-07 18:41 | 37.95821 | 10.28275 | 31112 ft | 408 kts | 189° |
| 2026-05-07 18:41 | 37.92979 | 10.28117 | 30199 ft | 410 kts | 188° |
| 2026-05-07 18:42 | 37.90115 | 10.27969 | 29106 ft | 414 kts | 188° |
| 2026-05-07 18:42 | 37.87223 | 10.27833 | 28046 ft | 416 kts | 187° |
| 2026-05-07 18:42 | 37.84328 | 10.27700 | 26973 ft | 418 kts | 187° |
| 2026-05-07 18:42 | 37.81429 | 10.27568 | 25875 ft | 422 kts | 187° |
| 2026-05-07 18:43 | 37.78445 | 10.27429 | 24815 ft | 426 kts | 187° |
| 2026-05-07 18:43 | 37.75487 | 10.27289 | 23999 ft | 424 kts | 187° |
| 2026-05-07 18:43 | 37.72548 | 10.27148 | 23142 ft | 422 kts | 186° |
| 2026-05-07 18:43 | 37.69622 | 10.27007 | 22351 ft | 419 kts | 186° |
| 2026-05-07 18:44 | 37.66759 | 10.26871 | 21633 ft | 415 kts | 186° |
| 2026-05-07 18:44 | 37.63881 | 10.26736 | 20910 ft | 412 kts | 186° |
| 2026-05-07 18:44 | 37.61027 | 10.26602 | 20217 ft | 409 kts | 186° |
| 2026-05-07 18:44 | 37.58191 | 10.26468 | 19535 ft | 407 kts | 186° |
| 2026-05-07 18:45 | 37.55371 | 10.26329 | 18857 ft | 405 kts | 186° |
| 2026-05-07 18:45 | 37.52541 | 10.26190 | 18204 ft | 404 kts | 186° |
| 2026-05-07 18:45 | 37.49735 | 10.26058 | 17474 ft | 403 kts | 186° |
| 2026-05-07 18:45 | 37.46967 | 10.25933 | 16852 ft | 400 kts | 186° |
| 2026-05-07 18:46 | 37.44190 | 10.25811 | 16242 ft | 397 kts | 186° |
| 2026-05-07 18:46 | 37.41433 | 10.25687 | 15657 ft | 394 kts | 186° |
| 2026-05-07 18:46 | 37.38702 | 10.25559 | 15081 ft | 391 kts | 186° |
| 2026-05-07 18:46 | 37.35984 | 10.25434 | 14514 ft | 388 kts | 185° |
| 2026-05-07 18:47 | 37.33294 | 10.25311 | 13931 ft | 385 kts | 185° |
| 2026-05-07 18:47 | 37.30620 | 10.25186 | 13311 ft | 383 kts | 185° |
| 2026-05-07 18:47 | 37.27997 | 10.25064 | 12701 ft | 380 kts | 185° |
| 2026-05-07 18:47 | 37.25359 | 10.24943 | 12072 ft | 376 kts | 185° |
| 2026-05-07 18:48 | 37.22753 | 10.24824 | 11421 ft | 373 kts | 185° |
| 2026-05-07 18:48 | 37.20174 | 10.24706 | 10964 ft | 365 kts | 185° |
| 2026-05-07 18:48 | 37.17696 | 10.24596 | 10834 ft | 347 kts | 185° |
| 2026-05-07 18:48 | 37.15376 | 10.24500 | 10712 ft | 318 kts | 185° |
| 2026-05-07 18:49 | 37.13251 | 10.24413 | 10521 ft | 295 kts | 185° |
| 2026-05-07 18:49 | 37.11239 | 10.24324 | 10128 ft | 284 kts | 186° |
| 2026-05-07 18:49 | 37.09292 | 10.24232 | 9899 ft | 282 kts | 186° |
| 2026-05-07 18:49 | 37.07332 | 10.24136 | 9751 ft | 283 kts | 186° |
| 2026-05-07 18:50 | 37.05363 | 10.24040 | 9620 ft | 282 kts | 186° |
| 2026-05-07 18:50 | 37.03410 | 10.23948 | 9491 ft | 281 kts | 186° |
| 2026-05-07 18:50 | 37.01458 | 10.23859 | 9356 ft | 280 kts | 184° |
| 2026-05-07 18:50 | 36.99518 | 10.23769 | 9228 ft | 279 kts | 184° |
| 2026-05-07 18:51 | 36.97575 | 10.23679 | 9019 ft | 280 kts | 184° |
| 2026-05-07 18:51 | 36.95615 | 10.23588 | 8509 ft | 282 kts | 184° |
| 2026-05-07 18:51 | 36.93657 | 10.23497 | 8050 ft | 283 kts | 184° |
| 2026-05-07 18:51 | 36.91710 | 10.23406 | 7544 ft | 277 kts | 184° |
| 2026-05-07 18:52 | 36.89795 | 10.23319 | 6961 ft | 273 kts | 184° |
| 2026-05-07 18:52 | 36.87899 | 10.23236 | 6440 ft | 272 kts | 184° |
| 2026-05-07 18:52 | 36.86012 | 10.23152 | 5901 ft | 271 kts | 184° |
| 2026-05-07 18:52 | 36.84159 | 10.22834 | 5397 ft | 268 kts | 194° |
| 2026-05-07 18:53 | 36.82362 | 10.22294 | 4908 ft | 270 kts | 194° |
| 2026-05-07 18:53 | 36.80534 | 10.21756 | 4477 ft | 269 kts | 194° |
| 2026-05-07 18:53 | 36.78918 | 10.21283 | 4036 ft | 269 kts | 194° |
| 2026-05-07 18:53 | 36.77127 | 10.20758 | 3898 ft | 256 kts | 194° |
| 2026-05-07 18:54 | 36.75445 | 10.20264 | 3859 ft | 240 kts | 193° |
| 2026-05-07 18:54 | 36.73863 | 10.19798 | 3771 ft | 227 kts | 193° |
| 2026-05-07 18:54 | 36.72346 | 10.19352 | 3675 ft | 221 kts | 192° |
| 2026-05-07 18:54 | 36.70845 | 10.18911 | 3581 ft | 220 kts | 192° |
| 2026-05-07 18:55 | 36.69363 | 10.18476 | 3478 ft | 219 kts | 193° |
| 2026-05-07 18:55 | 36.67875 | 10.18040 | 3387 ft | 220 kts | 192° |
| 2026-05-07 18:55 | 36.66489 | 10.17380 | 3274 ft | 217 kts | 218° |
| 2026-05-07 18:55 | 36.65720 | 10.15832 | 3120 ft | 211 kts | 259° |
| 2026-05-07 18:56 | 36.65954 | 10.14073 | 2972 ft | 209 kts | 303° |
| 2026-05-07 18:56 | 36.67034 | 10.12933 | 2837 ft | 205 kts | 344° |
| 2026-05-07 18:56 | 36.68391 | 10.12888 | 2739 ft | 189 kts | 20° |
| 2026-05-07 18:56 | 36.69351 | 10.13807 | 2593 ft | 165 kts | 51° |
| 2026-05-07 18:57 | 36.70150 | 10.14754 | 2476 ft | 152 kts | 47° |
| 2026-05-07 18:57 | 36.70916 | 10.15620 | 2364 ft | 146 kts | 45° |
| 2026-05-07 18:57 | 36.71659 | 10.16460 | 2314 ft | 141 kts | 45° |
| 2026-05-07 18:57 | 36.72386 | 10.17283 | 2231 ft | 140 kts | 46° |
| 2026-05-07 18:58 | 36.72869 | 10.17829 | 2191 ft | 141 kts | 46° |
| 2026-05-07 18:58 | 36.73590 | 10.18645 | 2070 ft | 140 kts | 46° |
| 2026-05-07 18:58 | 36.74397 | 10.19335 | 1916 ft | 142 kts | 32° |
| 2026-05-07 18:58 | 36.75633 | 10.19959 | 1705 ft | 143 kts | 22° |
| 2026-05-07 18:59 | 36.76573 | 10.20301 | 1525 ft | 141 kts | 19° |
| 2026-05-07 18:59 | 36.77526 | 10.20601 | 1319 ft | 140 kts | 17° |
| 2026-05-07 18:59 | 36.78473 | 10.20878 | 1130 ft | 139 kts | 14° |
| 2026-05-07 18:59 | 36.79423 | 10.21146 | 953 ft | 139 kts | 14° |
| 2026-05-07 19:00 | 36.80353 | 10.21403 | 773 ft | 135 kts | 15° |
| 2026-05-07 19:00 | 36.81272 | 10.21654 | 596 ft | 134 kts | 13° |
| 2026-05-07 19:00 | 36.82167 | 10.21902 | 413 ft | 131 kts | 14° |
| 2026-05-07 19:00 | 36.83062 | 10.22156 | 285 ft | 132 kts | 12° |
| 2026-05-07 19:01 | 36.83963 | 10.22398 | 86 ft | 132 kts | 11° |
| 2026-05-07 19:01 | 36.84747 | 10.22597 | 31 ft | 61 kts | 12° |
| 2026-05-07 19:01 | 36.84898 | 10.22622 | 32 ft | 13 kts | 337° |
| 2026-05-07 19:01 | 36.84951 | 10.22539 | 32 ft | 12 kts | 297° |
| 2026-05-07 19:02 | 36.84980 | 10.22453 | 31 ft | 9 kts | 290° |
| 2026-05-07 19:02 | 36.84948 | 10.22379 | 31 ft | 12 kts | 200° |
| 2026-05-07 19:02 | 36.84882 | 10.22353 | 30 ft | 8 kts | 210° |
| 2026-05-07 19:02 | 36.84876 | 10.22249 | 30 ft | 17 kts | 281° |
| 2026-05-07 19:03 | 36.84895 | 10.22108 | 30 ft | 15 kts | 261° |
| 2026-05-07 19:03 | 36.84831 | 10.22039 | 30 ft | 13 kts | 184° |
| 2026-05-07 19:03 | 36.84741 | 10.22015 | 30 ft | 12 kts | 211° |
| 2026-05-07 19:03 | 36.84689 | 10.21969 | 30 ft | 7 kts | 199° |
| 2026-05-07 19:04 | 36.84660 | 10.21959 | 30 ft | 0 kts | 197° |